sensor_id;sensor_type;location;lat;lon;timestamp;pressure;altitude;pressure_sealevel;temperature;humidity
79617;BME280;69097;52.132;5.422;2023-08-06T00:00:37;100609.31;;;15.17;93.53
79617;BME280;69097;52.132;5.422;2023-08-06T00:03:04;100606.97;;;15.16;93.84
79617;BME280;69097;52.132;5.422;2023-08-06T00:05:32;100612.94;;;15.18;93.41
79617;BME280;69097;52.132;5.422;2023-08-06T00:07:58;100610.09;;;15.18;93.25
79617;BME280;69097;52.132;5.422;2023-08-06T00:10:25;100603.81;;;15.14;93.63
79617;BME280;69097;52.132;5.422;2023-08-06T00:12:52;100612.75;;;15.12;93.17
79617;BME280;69097;52.132;5.422;2023-08-06T00:15:18;100611.53;;;15.13;93.38
79617;BME280;69097;52.132;5.422;2023-08-06T00:17:45;100606.63;;;15.14;93.49
79617;BME280;69097;52.132;5.422;2023-08-06T00:20:11;100614.81;;;15.12;93.70
79617;BME280;69097;52.132;5.422;2023-08-06T00:22:38;100616.38;;;15.13;93.64
79617;BME280;69097;52.132;5.422;2023-08-06T00:25:05;100606.34;;;15.12;93.87
79617;BME280;69097;52.132;5.422;2023-08-06T00:27:33;100607.91;;;15.13;93.79
79617;BME280;69097;52.132;5.422;2023-08-06T00:29:59;100603.53;;;15.12;93.84
79617;BME280;69097;52.132;5.422;2023-08-06T00:32:25;100596.59;;;15.13;93.83
79617;BME280;69097;52.132;5.422;2023-08-06T00:34:52;100606.63;;;15.14;93.98
79617;BME280;69097;52.132;5.422;2023-08-06T00:37:19;100607.44;;;15.14;93.87
79617;BME280;69097;52.132;5.422;2023-08-06T00:39:45;100606.34;;;15.12;93.83
79617;BME280;69097;52.132;5.422;2023-08-06T00:42:12;100603.53;;;15.12;94.04
79617;BME280;69097;52.132;5.422;2023-08-06T00:44:39;100596.59;;;15.13;94.16
79617;BME280;69097;52.132;5.422;2023-08-06T00:47:07;100589.69;;;15.14;93.96
79617;BME280;69097;52.132;5.422;2023-08-06T00:49:38;100593.31;;;15.14;93.71
79617;BME280;69097;52.132;5.422;2023-08-06T00:52:06;100591.75;;;15.13;94.03
79617;BME280;69097;52.132;5.422;2023-08-06T00:54:34;100601.47;;;15.12;93.81
79617;BME280;69097;52.132;5.422;2023-08-06T00:57:01;100592.97;;;15.12;93.99
79617;BME280;69097;52.132;5.422;2023-08-06T00:59:29;100604.28;;;15.12;94.03
79617;BME280;69097;52.132;5.422;2023-08-06T01:01:57;100594.25;;;15.11;93.96
79617;BME280;69097;52.132;5.422;2023-08-06T01:04:24;100590.31;;;15.09;93.77
79617;BME280;69097;52.132;5.422;2023-08-06T01:15:07;100584.97;;;15.11;93.82
79617;BME280;69097;52.132;5.422;2023-08-06T01:17:36;100588.59;;;15.11;94.10
79617;BME280;69097;52.132;5.422;2023-08-06T01:20:03;100584.97;;;15.11;94.26
79617;BME280;69097;52.132;5.422;2023-08-06T01:22:30;100587.81;;;15.11;94.47
79617;BME280;69097;52.132;5.422;2023-08-06T01:24:56;100575.75;;;15.10;94.20
79617;BME280;69097;52.132;5.422;2023-08-06T01:30:17;100586.84;;;15.14;94.22
79617;BME280;69097;52.132;5.422;2023-08-06T01:32:49;100585.31;;;15.13;93.89
79617;BME280;69097;52.132;5.422;2023-08-06T01:35:18;100590.16;;;15.12;93.92
79617;BME280;69097;52.132;5.422;2023-08-06T01:37:46;100593.44;;;15.11;94.06
79617;BME280;69097;52.132;5.422;2023-08-06T01:40:13;100593.44;;;15.11;94.12
79617;BME280;69097;52.132;5.422;2023-08-06T01:42:40;100584.97;;;15.11;94.06
79617;BME280;69097;52.132;5.422;2023-08-06T01:45:07;100586.56;;;15.12;94.42
79617;BME280;69097;52.132;5.422;2023-08-06T01:47:35;100604.75;;;15.11;94.04
79617;BME280;69097;52.132;5.422;2023-08-06T01:50:01;100590.63;;;15.11;93.81
79617;BME280;69097;52.132;5.422;2023-08-06T01:52:28;100589.53;;;15.08;93.82
79617;BME280;69097;52.132;5.422;2023-08-06T01:54:55;100602.88;;;15.08;93.67
79617;BME280;69097;52.132;5.422;2023-08-06T01:57:22;100599.56;;;15.09;93.94
79617;BME280;69097;52.132;5.422;2023-08-06T01:59:48;100599.09;;;15.11;94.20
79617;BME280;69097;52.132;5.422;2023-08-06T02:02:14;100603.19;;;15.10;94.17
79617;BME280;69097;52.132;5.422;2023-08-06T02:04:41;100603.66;;;15.08;94.26
79617;BME280;69097;52.132;5.422;2023-08-06T02:07:07;100607.59;;;15.11;94.18
79617;BME280;69097;52.132;5.422;2023-08-06T02:09:34;100614.50;;;15.10;94.41
79617;BME280;69097;52.132;5.422;2023-08-06T02:12:02;100605.69;;;15.08;94.45
79617;BME280;69097;52.132;5.422;2023-08-06T02:14:29;100609.00;;;15.06;94.31
79617;BME280;69097;52.132;5.422;2023-08-06T02:16:55;100601.31;;;15.07;94.52
79617;BME280;69097;52.132;5.422;2023-08-06T02:19:22;100596.91;;;15.06;94.20
79617;BME280;69097;52.132;5.422;2023-08-06T02:21:48;100594.56;;;15.04;94.25
79617;BME280;69097;52.132;5.422;2023-08-06T02:24:15;100600.69;;;15.03;94.57
79617;BME280;69097;52.132;5.422;2023-08-06T02:26:41;100597.84;;;15.03;94.49
79617;BME280;69097;52.132;5.422;2023-08-06T02:29:08;100599.88;;;15.02;94.11
79617;BME280;69097;52.132;5.422;2023-08-06T02:31:35;100598.31;;;15.01;94.19
79617;BME280;69097;52.132;5.422;2023-08-06T02:34:02;100600.34;;;15.01;94.36
79617;BME280;69097;52.132;5.422;2023-08-06T02:36:28;100591.41;;;15.02;94.61
79617;BME280;69097;52.132;5.422;2023-08-06T02:38:55;100596.28;;;15.02;94.34
79617;BME280;69097;52.132;5.422;2023-08-06T02:41:22;100599.59;;;15.00;94.31
79617;BME280;69097;52.132;5.422;2023-08-06T02:43:48;100598.00;;;14.99;94.45
79617;BME280;69097;52.132;5.422;2023-08-06T02:46:15;100591.88;;;15.01;94.82
79617;BME280;69097;52.132;5.422;2023-08-06T02:48:41;100589.06;;;15.01;94.71
79617;BME280;69097;52.132;5.422;2023-08-06T02:51:08;100586.22;;;15.01;94.72
79617;BME280;69097;52.132;5.422;2023-08-06T02:53:34;100589.84;;;15.01;94.34
79617;BME280;69097;52.132;5.422;2023-08-06T02:56:01;100587.81;;;15.02;94.69
79617;BME280;69097;52.132;5.422;2023-08-06T02:58:27;100580.09;;;15.02;94.55
79617;BME280;69097;52.132;5.422;2023-08-06T03:01:01;100572.91;;;15.01;94.52
79617;BME280;69097;52.132;5.422;2023-08-06T03:03:30;100576.53;;;15.02;94.58
79617;BME280;69097;52.132;5.422;2023-08-06T03:05:57;100572.91;;;15.01;94.81
79617;BME280;69097;52.132;5.422;2023-08-06T03:08:24;100567.72;;;15.00;94.66
79617;BME280;69097;52.132;5.422;2023-08-06T03:10:50;100577.75;;;15.01;94.56
79617;BME280;69097;52.132;5.422;2023-08-06T03:13:17;100568.03;;;15.02;94.89
79617;BME280;69097;52.132;5.422;2023-08-06T03:18:20;100570.56;;;15.00;94.41
79617;BME280;69097;52.132;5.422;2023-08-06T03:20:48;100574.94;;;15.01;94.66
79617;BME280;69097;52.132;5.422;2023-08-06T03:23:15;100568.03;;;15.02;94.75
79617;BME280;69097;52.132;5.422;2023-08-06T03:25:41;100575.25;;;15.03;94.79
79617;BME280;69097;52.132;5.422;2023-08-06T03:28:08;100573.69;;;15.02;94.67
79617;BME280;69097;52.132;5.422;2023-08-06T03:30:34;100568.03;;;15.02;94.71
79617;BME280;69097;52.132;5.422;2023-08-06T03:33:01;100574.16;;;15.00;94.93
79617;BME280;69097;52.132;5.422;2023-08-06T03:35:27;100569.75;;;14.99;94.48
79617;BME280;69097;52.132;5.422;2023-08-06T03:37:54;100571.78;;;14.99;94.83
79617;BME280;69097;52.132;5.422;2023-08-06T03:40:21;100570.22;;;14.98;94.66
79617;BME280;69097;52.132;5.422;2023-08-06T03:42:47;100574.31;;;14.97;94.92
79617;BME280;69097;52.132;5.422;2023-08-06T03:45:13;100568.66;;;14.97;94.44
79617;BME280;69097;52.132;5.422;2023-08-06T03:47:40;100571.50;;;14.97;94.96
79617;BME280;69097;52.132;5.422;2023-08-06T03:50:07;100574.31;;;14.97;94.82
79617;BME280;69097;52.132;5.422;2023-08-06T03:52:33;100583.56;;;14.97;94.74
79617;BME280;69097;52.132;5.422;2023-08-06T03:55:00;100582.78;;;14.97;94.71
79617;BME280;69097;52.132;5.422;2023-08-06T03:57:26;100585.63;;;14.97;94.54
79617;BME280;69097;52.132;5.422;2023-08-06T03:59:53;100585.31;;;14.95;94.74
79617;BME280;69097;52.132;5.422;2023-08-06T04:02:21;100582.47;;;14.95;94.70
79617;BME280;69097;52.132;5.422;2023-08-06T04:04:47;100584.03;;;14.96;94.65
79617;BME280;69097;52.132;5.422;2023-08-06T04:07:14;100577.16;;;14.97;94.61
79617;BME280;69097;52.132;5.422;2023-08-06T04:09:57;100585.63;;;14.97;94.54
79617;BME280;69097;52.132;5.422;2023-08-06T04:12:24;100581.22;;;14.96;94.63
79617;BME280;69097;52.132;5.422;2023-08-06T04:14:51;100585.31;;;14.95;94.77
79617;BME280;69097;52.132;5.422;2023-08-06T04:17:22;100579.66;;;14.95;94.84
79617;BME280;69097;52.132;5.422;2023-08-06T04:19:51;100575.56;;;14.96;94.52
79617;BME280;69097;52.132;5.422;2023-08-06T04:22:18;100585.31;;;14.95;94.35
79617;BME280;69097;52.132;5.422;2023-08-06T04:24:45;100588.88;;;14.95;94.37
79617;BME280;69097;52.132;5.422;2023-08-06T04:27:12;100588.13;;;14.95;94.84
79617;BME280;69097;52.132;5.422;2023-08-06T04:29:39;100578.84;;;14.94;94.71
79617;BME280;69097;52.132;5.422;2023-08-06T04:32:08;100588.88;;;14.95;94.66
79617;BME280;69097;52.132;5.422;2023-08-06T04:34:36;100595.00;;;14.94;94.42
79617;BME280;69097;52.132;5.422;2023-08-06T04:37:03;100595.00;;;14.94;94.92
79617;BME280;69097;52.132;5.422;2023-08-06T04:39:30;100592.50;;;14.96;94.71
79617;BME280;69097;52.132;5.422;2023-08-06T04:41:57;100596.91;;;14.97;95.04
79617;BME280;69097;52.132;5.422;2023-08-06T04:44:26;100598.47;;;14.98;94.34
79617;BME280;69097;52.132;5.422;2023-08-06T04:46:53;100599.28;;;14.98;94.92
79617;BME280;69097;52.132;5.422;2023-08-06T04:49:22;100605.25;;;15.00;94.52
79617;BME280;69097;52.132;5.422;2023-08-06T04:51:49;100606.81;;;15.01;94.90
79617;BME280;69097;52.132;5.422;2023-08-06T04:54:16;100611.97;;;15.03;94.79
79617;BME280;69097;52.132;5.422;2023-08-06T04:56:42;100607.13;;;15.03;95.07
79617;BME280;69097;52.132;5.422;2023-08-06T04:59:09;100603.03;;;15.04;94.74
79617;BME280;69097;52.132;5.422;2023-08-06T05:01:35;100606.66;;;15.05;94.93
79617;BME280;69097;52.132;5.422;2023-08-06T05:04:02;100615.13;;;15.05;95.33
79617;BME280;69097;52.132;5.422;2023-08-06T05:06:29;100611.81;;;15.06;95.04
79617;BME280;69097;52.132;5.422;2023-08-06T05:08:55;100617.00;;;15.08;94.84
79617;BME280;69097;52.132;5.422;2023-08-06T05:11:22;100614.50;;;15.10;95.25
79617;BME280;69097;52.132;5.422;2023-08-06T05:13:48;100618.88;;;15.11;95.20
79617;BME280;69097;52.132;5.422;2023-08-06T05:16:15;100616.06;;;15.11;95.03
79617;BME280;69097;52.132;5.422;2023-08-06T05:18:41;100623.28;;;15.12;95.04
79617;BME280;69097;52.132;5.422;2023-08-06T05:21:08;100621.22;;;15.12;95.28
79617;BME280;69097;52.132;5.422;2023-08-06T05:23:35;100631.31;;;15.13;94.97
79617;BME280;69097;52.132;5.422;2023-08-06T05:26:01;100641.81;;;15.13;94.87
79617;BME280;69097;52.132;5.422;2023-08-06T05:28:28;100635.38;;;15.12;94.88
79617;BME280;69097;52.132;5.422;2023-08-06T05:30:54;100640.25;;;15.12;95.04
79617;BME280;69097;52.132;5.422;2023-08-06T05:33:21;100639.13;;;15.09;95.02
79617;BME280;69097;52.132;5.422;2023-08-06T05:35:49;100646.38;;;15.10;94.78
79617;BME280;69097;52.132;5.422;2023-08-06T05:38:16;100645.09;;;15.11;94.63
79617;BME280;69097;52.132;5.422;2023-08-06T05:40:43;100647.59;;;15.09;95.02
79617;BME280;69097;52.132;5.422;2023-08-06T05:43:10;100644.00;;;15.09;95.03
79617;BME280;69097;52.132;5.422;2023-08-06T05:45:36;100651.22;;;15.10;94.92
79617;BME280;69097;52.132;5.422;2023-08-06T05:48:03;100652.94;;;15.07;95.10
79617;BME280;69097;52.132;5.422;2023-08-06T05:50:29;100661.41;;;15.07;95.21
79617;BME280;69097;52.132;5.422;2023-08-06T05:52:56;100668.19;;;15.10;95.13
79617;BME280;69097;52.132;5.422;2023-08-06T05:55:26;100665.69;;;15.12;95.25
79617;BME280;69097;52.132;5.422;2023-08-06T05:57:53;100662.84;;;15.12;95.51
79617;BME280;69097;52.132;5.422;2023-08-06T06:00:22;100664.41;;;15.13;95.30
79617;BME280;69097;52.132;5.422;2023-08-06T06:02:49;100668.50;;;15.12;95.29
79617;BME280;69097;52.132;5.422;2023-08-06T06:05:15;100668.78;;;15.14;95.14
79617;BME280;69097;52.132;5.422;2023-08-06T06:07:42;100677.59;;;15.16;95.46
79617;BME280;69097;52.132;5.422;2023-08-06T06:10:09;100682.00;;;15.17;95.30
79617;BME280;69097;52.132;5.422;2023-08-06T06:12:38;100676.66;;;15.19;95.66
79617;BME280;69097;52.132;5.422;2023-08-06T06:15:05;100679.47;;;15.19;95.63
79617;BME280;69097;52.132;5.422;2023-08-06T06:17:31;100687.66;;;15.17;95.35
79617;BME280;69097;52.132;5.422;2023-08-06T06:19:58;100690.00;;;15.18;95.67
79617;BME280;69097;52.132;5.422;2023-08-06T06:22:24;100692.38;;;15.20;95.49
79617;BME280;69097;52.132;5.422;2023-08-06T06:24:51;100688.28;;;15.21;95.66
79617;BME280;69097;52.132;5.422;2023-08-06T06:27:17;100690.63;;;15.22;95.54
79617;BME280;69097;52.132;5.422;2023-08-06T06:29:44;100698.66;;;15.24;95.50
79617;BME280;69097;52.132;5.422;2023-08-06T06:32:10;100703.38;;;15.27;95.56
79617;BME280;69097;52.132;5.422;2023-08-06T06:34:37;100703.38;;;15.27;95.21
79617;BME280;69097;52.132;5.422;2023-08-06T06:37:03;100701.63;;;15.29;95.34
79617;BME280;69097;52.132;5.422;2023-08-06T06:39:30;100706.06;;;15.30;95.81
79617;BME280;69097;52.132;5.422;2023-08-06T06:41:56;100709.66;;;15.31;95.85
79617;BME280;69097;52.132;5.422;2023-08-06T06:44:23;100709.66;;;15.31;95.70
79617;BME280;69097;52.132;5.422;2023-08-06T06:46:49;100719.25;;;15.33;95.95
79617;BME280;69097;52.132;5.422;2023-08-06T06:49:18;100707.13;;;15.33;96.04
79617;BME280;69097;52.132;5.422;2023-08-06T06:51:45;100716.72;;;15.35;96.24
79617;BME280;69097;52.132;5.422;2023-08-06T06:54:14;100715.16;;;15.34;95.79
79617;BME280;69097;52.132;5.422;2023-08-06T06:56:41;100717.97;;;15.34;95.65
79617;BME280;69097;52.132;5.422;2023-08-06T06:59:08;100719.25;;;15.33;95.68
79617;BME280;69097;52.132;5.422;2023-08-06T07:01:34;100717.22;;;15.34;95.68
79617;BME280;69097;52.132;5.422;2023-08-06T07:04:01;100716.41;;;15.33;95.84
79617;BME280;69097;52.132;5.422;2023-08-06T07:06:31;100720.78;;;15.34;95.60
79617;BME280;69097;52.132;5.422;2023-08-06T07:08:58;100717.97;;;15.34;95.43
79617;BME280;69097;52.132;5.422;2023-08-06T07:11:24;100720.03;;;15.34;95.33
79617;BME280;69097;52.132;5.422;2023-08-06T07:13:56;100715.63;;;15.33;95.51
79617;BME280;69097;52.132;5.422;2023-08-06T07:16:24;100718.28;;;15.36;95.62
79617;BME280;69097;52.132;5.422;2023-08-06T07:18:53;100715.00;;;15.38;95.29
79617;BME280;69097;52.132;5.422;2023-08-06T07:21:20;100716.59;;;15.39;95.74
79617;BME280;69097;52.132;5.422;2023-08-06T07:23:47;100728.22;;;15.41;95.70
79617;BME280;69097;52.132;5.422;2023-08-06T07:26:16;100725.72;;;15.43;95.64
79617;BME280;69097;52.132;5.422;2023-08-06T07:28:43;100725.25;;;15.44;95.98
79617;BME280;69097;52.132;5.422;2023-08-06T07:31:10;100727.59;;;15.46;95.59
79617;BME280;69097;52.132;5.422;2023-08-06T07:33:37;100734.03;;;15.46;95.61
79617;BME280;69097;52.132;5.422;2023-08-06T07:36:11;100737.19;;;15.48;95.46
79617;BME280;69097;52.132;5.422;2023-08-06T07:38:38;100729.03;;;15.50;95.62
79617;BME280;69097;52.132;5.422;2023-08-06T07:41:05;100729.34;;;15.52;95.66
79617;BME280;69097;52.132;5.422;2023-08-06T07:43:32;100733.75;;;15.53;95.37
79617;BME280;69097;52.132;5.422;2023-08-06T07:45:59;100737.34;;;15.54;95.21
79617;BME280;69097;52.132;5.422;2023-08-06T07:48:29;100729.16;;;15.56;95.45
79617;BME280;69097;52.132;5.422;2023-08-06T07:50:56;100749.75;;;15.56;95.30
79617;BME280;69097;52.132;5.422;2023-08-06T07:53:24;100742.38;;;15.59;95.40
79617;BME280;69097;52.132;5.422;2023-08-06T07:55:55;100736.72;;;15.59;95.64
79617;BME280;69097;52.132;5.422;2023-08-06T07:58:24;100741.59;;;15.58;95.65
79617;BME280;69097;52.132;5.422;2023-08-06T08:00:51;100740.81;;;15.58;95.58
79617;BME280;69097;52.132;5.422;2023-08-06T08:03:18;100740.81;;;15.58;95.20
79617;BME280;69097;52.132;5.422;2023-08-06T08:05:46;100732.00;;;15.56;95.33
79617;BME280;69097;52.132;5.422;2023-08-06T08:08:12;100739.38;;;15.53;95.61
79617;BME280;69097;52.132;5.422;2023-08-06T08:10:39;100747.41;;;15.55;95.62
79617;BME280;69097;52.132;5.422;2023-08-06T08:13:05;100744.25;;;15.53;95.54
79617;BME280;69097;52.132;5.422;2023-08-06T08:15:32;100744.88;;;15.48;94.87
79617;BME280;69097;52.132;5.422;2023-08-06T08:17:59;100750.69;;;15.44;95.01
79617;BME280;69097;52.132;5.422;2023-08-06T08:20:26;100756.59;;;15.37;94.77
79617;BME280;69097;52.132;5.422;2023-08-06T08:22:59;100752.69;;;15.35;94.84
79617;BME280;69097;52.132;5.422;2023-08-06T08:25:27;100754.72;;;15.34;94.82
79617;BME280;69097;52.132;5.422;2023-08-06T08:27:57;100760.50;;;15.31;95.31
79617;BME280;69097;52.132;5.422;2023-08-06T08:30:24;100758.16;;;15.29;94.86
79617;BME280;69097;52.132;5.422;2023-08-06T08:32:51;100768.06;;;15.25;95.17
79617;BME280;69097;52.132;5.422;2023-08-06T08:35:18;100757.69;;;15.22;95.19
79617;BME280;69097;52.132;5.422;2023-08-06T08:37:45;100759.41;;;15.19;95.03
79617;BME280;69097;52.132;5.422;2023-08-06T08:40:11;100766.94;;;15.13;94.28
79617;BME280;69097;52.132;5.422;2023-08-06T08:42:38;100771.78;;;15.13;94.92
79617;BME280;69097;52.132;5.422;2023-08-06T08:45:13;100769.75;;;15.13;94.73
79617;BME280;69097;52.132;5.422;2023-08-06T08:47:42;100769.56;;;15.08;94.56
79617;BME280;69097;52.132;5.422;2023-08-06T08:50:13;100772.06;;;15.06;94.64
79617;BME280;69097;52.132;5.422;2023-08-06T08:52:40;100778.66;;;15.03;94.34
79617;BME280;69097;52.132;5.422;2023-08-06T08:55:08;100778.66;;;15.03;95.08
79617;BME280;69097;52.132;5.422;2023-08-06T08:57:35;100776.31;;;15.01;94.87
79617;BME280;69097;52.132;5.422;2023-08-06T09:00:02;100779.25;;;14.98;94.42
79617;BME280;69097;52.132;5.422;2023-08-06T09:02:30;100788.22;;;14.96;94.51
79617;BME280;69097;52.132;5.422;2023-08-06T09:05:00;100790.38;;;14.92;94.10
79617;BME280;69097;52.132;5.422;2023-08-06T09:07:34;100796.50;;;14.91;94.62
79617;BME280;69097;52.132;5.422;2023-08-06T09:10:02;100791.63;;;14.91;94.40
79617;BME280;69097;52.132;5.422;2023-08-06T09:12:30;100802.47;;;14.93;94.55
79617;BME280;69097;52.132;5.422;2023-08-06T09:14:57;100791.31;;;14.89;94.59
79617;BME280;69097;52.132;5.422;2023-08-06T09:17:24;100797.75;;;14.90;95.26
79617;BME280;69097;52.132;5.422;2023-08-06T09:19:51;100804.63;;;14.89;95.19
79617;BME280;69097;52.132;5.422;2023-08-06T09:22:17;100800.59;;;14.90;94.88
79617;BME280;69097;52.132;5.422;2023-08-06T09:24:44;100799.47;;;14.87;94.64
79617;BME280;69097;52.132;5.422;2023-08-06T09:27:11;100821.28;;;14.87;94.52
79617;BME280;69097;52.132;5.422;2023-08-06T09:29:46;100819.69;;;14.86;94.66
79617;BME280;69097;52.132;5.422;2023-08-06T09:32:13;100822.84;;;14.88;95.01
79617;BME280;69097;52.132;5.422;2023-08-06T09:34:42;100823.31;;;14.86;94.70
79617;BME280;69097;52.132;5.422;2023-08-06T09:37:09;100825.81;;;14.84;94.51
79617;BME280;69097;52.132;5.422;2023-08-06T09:39:39;100818.91;;;14.85;94.98
79617;BME280;69097;52.132;5.422;2023-08-06T09:42:07;100833.34;;;14.87;95.19
79617;BME280;69097;52.132;5.422;2023-08-06T09:44:34;100831.00;;;14.86;94.54
79617;BME280;69097;52.132;5.422;2023-08-06T09:47:03;100832.88;;;14.89;94.60
79617;BME280;69097;52.132;5.422;2023-08-06T09:52:00;100840.75;;;14.94;94.71
79617;BME280;69097;52.132;5.422;2023-08-06T09:54:27;100838.41;;;14.92;94.62
79617;BME280;69097;52.132;5.422;2023-08-06T09:56:55;100844.84;;;14.93;94.51
79617;BME280;69097;52.132;5.422;2023-08-06T09:59:23;100846.09;;;14.92;93.88
79617;BME280;69097;52.132;5.422;2023-08-06T10:01:50;100843.28;;;14.92;94.81
79617;BME280;69097;52.132;5.422;2023-08-06T10:04:19;100843.28;;;14.92;94.77
79617;BME280;69097;52.132;5.422;2023-08-06T10:06:52;100846.88;;;14.92;95.10
79617;BME280;69097;52.132;5.422;2023-08-06T10:09:19;100856.13;;;14.93;94.74
79617;BME280;69097;52.132;5.422;2023-08-06T10:11:51;100848.75;;;14.95;94.54
79617;BME280;69097;52.132;5.422;2023-08-06T10:14:28;100854.13;;;14.93;94.74
79617;BME280;69097;52.132;5.422;2023-08-06T10:16:57;100857.69;;;14.94;95.18
79617;BME280;69097;52.132;5.422;2023-08-06T10:19:28;100866.19;;;14.94;95.01
79617;BME280;69097;52.132;5.422;2023-08-06T10:22:12;100871.81;;;14.94;94.71
79617;BME280;69097;52.132;5.422;2023-08-06T10:24:51;100854.88;;;14.94;94.90
79617;BME280;69097;52.132;5.422;2023-08-06T10:27:33;100868.41;;;14.99;95.16
79617;BME280;69097;52.132;5.422;2023-08-06T10:32:50;100862.47;;;15.06;95.40
79617;BME280;69097;52.132;5.422;2023-08-06T10:40:39;100875.22;;;15.10;95.03
79617;BME280;69097;52.132;5.422;2023-08-06T10:43:24;100867.84;;;15.13;95.14
79617;BME280;69097;52.132;5.422;2023-08-06T10:45:51;100874.63;;;15.15;95.25
79617;BME280;69097;52.132;5.422;2023-08-06T10:48:32;100871.63;;;15.19;95.59
79617;BME280;69097;52.132;5.422;2023-08-06T10:51:00;100871.63;;;15.19;95.03
79617;BME280;69097;52.132;5.422;2023-08-06T10:53:27;100875.72;;;15.18;94.99
79617;BME280;69097;52.132;5.422;2023-08-06T10:55:58;100872.56;;;15.16;95.35
79617;BME280;69097;52.132;5.422;2023-08-06T10:58:25;100877.28;;;15.19;95.55
79617;BME280;69097;52.132;5.422;2023-08-06T11:00:51;100890.03;;;15.23;95.69
79617;BME280;69097;52.132;5.422;2023-08-06T11:03:18;100880.78;;;15.23;95.44
79617;BME280;69097;52.132;5.422;2023-08-06T11:05:51;100893.66;;;15.24;95.81
79617;BME280;69097;52.132;5.422;2023-08-06T11:08:27;100888.31;;;15.26;95.31
79617;BME280;69097;52.132;5.422;2023-08-06T11:10:55;100885.50;;;15.26;95.18
79617;BME280;69097;52.132;5.422;2023-08-06T11:13:28;100894.63;;;15.30;95.37
79617;BME280;69097;52.132;5.422;2023-08-06T11:15:56;100892.13;;;15.32;94.95
79617;BME280;69097;52.132;5.422;2023-08-06T11:18:22;100899.34;;;15.33;94.75
79617;BME280;69097;52.132;5.422;2023-08-06T11:20:49;100900.59;;;15.32;94.52
79617;BME280;69097;52.132;5.422;2023-08-06T11:23:15;100904.38;;;15.29;94.26
79617;BME280;69097;52.132;5.422;2023-08-06T11:25:45;100897.13;;;15.28;94.51
79617;BME280;69097;52.132;5.422;2023-08-06T11:28:12;100908.09;;;15.26;94.59
79617;BME280;69097;52.132;5.422;2023-08-06T11:30:40;100908.56;;;15.24;94.52
79617;BME280;69097;52.132;5.422;2023-08-06T11:33:07;100913.13;;;15.22;94.35
79617;BME280;69097;52.132;5.422;2023-08-06T11:35:36;100908.06;;;15.17;94.39
79617;BME280;69097;52.132;5.422;2023-08-06T11:38:03;100915.41;;;15.14;94.24
79617;BME280;69097;52.132;5.422;2023-08-06T11:40:30;100915.41;;;15.14;94.51
79617;BME280;69097;52.132;5.422;2023-08-06T11:42:58;100919.19;;;15.11;93.34
79617;BME280;69097;52.132;5.422;2023-08-06T11:45:24;100921.22;;;15.11;94.81
79617;BME280;69097;52.132;5.422;2023-08-06T11:47:51;100923.53;;;15.03;94.14
79617;BME280;69097;52.132;5.422;2023-08-06T11:50:23;100919.13;;;15.02;94.14
79617;BME280;69097;52.132;5.422;2023-08-06T11:52:56;100917.56;;;15.01;93.75
79617;BME280;69097;52.132;5.422;2023-08-06T11:55:30;100916.13;;;14.97;93.75
79617;BME280;69097;52.132;5.422;2023-08-06T11:57:57;100917.03;;;14.94;93.67
79617;BME280;69097;52.132;5.422;2023-08-06T12:00:24;100917.16;;;14.90;93.68
79617;BME280;69097;52.132;5.422;2023-08-06T12:02:51;100918.88;;;14.88;93.40
79617;BME280;69097;52.132;5.422;2023-08-06T12:05:20;100923.41;;;14.85;93.77
79617;BME280;69097;52.132;5.422;2023-08-06T12:07:56;100923.56;;;14.82;94.38
79617;BME280;69097;52.132;5.422;2023-08-06T12:10:26;100924.78;;;14.80;94.52
79617;BME280;69097;52.132;5.422;2023-08-06T12:12:53;100929.81;;;14.76;94.65
79617;BME280;69097;52.132;5.422;2023-08-06T12:15:20;100924.91;;;14.77;94.68
79617;BME280;69097;52.132;5.422;2023-08-06T12:17:46;100934.19;;;14.77;94.93
79617;BME280;69097;52.132;5.422;2023-08-06T12:20:13;100932.47;;;14.80;94.96
79617;BME280;69097;52.132;5.422;2023-08-06T12:22:40;100943.97;;;14.86;95.49
79617;BME280;69097;52.132;5.422;2023-08-06T12:25:10;100943.03;;;14.89;95.73
79617;BME280;69097;52.132;5.422;2023-08-06T12:27:40;100938.97;;;14.90;95.82
79617;BME280;69097;52.132;5.422;2023-08-06T12:30:10;100951.38;;;14.92;95.92
79617;BME280;69097;52.132;5.422;2023-08-06T12:32:37;100958.16;;;14.95;95.60
79617;BME280;69097;52.132;5.422;2023-08-06T12:35:04;100950.91;;;14.94;95.75
79617;BME280;69097;52.132;5.422;2023-08-06T12:37:31;100960.38;;;15.00;95.63
79617;BME280;69097;52.132;5.422;2023-08-06T12:39:57;100959.47;;;15.03;95.96
79617;BME280;69097;52.132;5.422;2023-08-06T12:42:24;100960.59;;;15.05;95.78
79617;BME280;69097;52.132;5.422;2023-08-06T12:44:51;100969.06;;;15.05;95.97
79617;BME280;69097;52.132;5.422;2023-08-06T12:47:18;100964.53;;;15.08;95.96
79617;BME280;69097;52.132;5.422;2023-08-06T12:49:45;100970.03;;;15.11;95.92
79617;BME280;69097;52.132;5.422;2023-08-06T12:52:12;100976.03;;;15.13;95.50
79617;BME280;69097;52.132;5.422;2023-08-06T12:54:41;100974.44;;;15.12;95.47
79617;BME280;69097;52.132;5.422;2023-08-06T12:57:08;100980.88;;;15.13;95.46
79617;BME280;69097;52.132;5.422;2023-08-06T12:59:34;100974.28;;;15.16;95.79
79617;BME280;69097;52.132;5.422;2023-08-06T13:02:03;100983.25;;;15.14;95.92
79617;BME280;69097;52.132;5.422;2023-08-06T13:04:30;100980.88;;;15.13;95.43
79617;BME280;69097;52.132;5.422;2023-08-06T13:06:57;100988.75;;;15.18;95.41
79617;BME280;69097;52.132;5.422;2023-08-06T13:09:24;101001.97;;;15.21;95.75
79617;BME280;69097;52.132;5.422;2023-08-06T13:11:52;100998.22;;;15.24;96.14
79617;BME280;69097;52.132;5.422;2023-08-06T13:14:20;101003.41;;;15.25;96.06
79617;BME280;69097;52.132;5.422;2023-08-06T13:16:46;101004.53;;;15.28;96.15